Pagrindinis puslapis
METAR-TAF:

METAR-TAF

Oro uostai :

Kobicha, Bolivija

platuma: 11-02S, ilguma: 068-47W, Aukštis: 235 m

Dabartinis oras

Ataskaita buvo paskelbta 5 valandos ir 21 minutes, ne 17:00 UTC
Vėjas 4 kt iš Šiaurės
Temperatūra 31°C
Drėgmė 66%
Slėgis 1011 hPa
Matomumas 10 km arba daugiau
Išsisklaidę debesys ne aukštis 2300 ft

METAR: SLCO 281700Z 01004KT 9999 SCT023 31/24 Q1011

Laikas: 18:21 (22:21 UTC)

Prognozė

Ataskaita buvo paskelbta 5 valandos ir 31 minutes, ne 16:50 UTC
Prognozė galioja nuo 28 metu 18 UTC su 29 metu 18 UTC
Vėjas 6 kt iš Pietryčių
Matomumas 10 km arba daugiau
Išsisklaidę debesys ne aukštis 2000 ft
Laikinai
nuo 28 metu 19 UTC su 28 metu 23 UTC
Matomumas: 7000 m
Mažai debesys ne aukštis 2700 ft, Liūtiniai kamuoliniai debesys.
perkūnija, lietus
Tapsmas
nuo 29 metu 00 UTC su 29 metu 02 UTC
Vėjas kt iš Šiaurės
Tapsmas
nuo 29 metu 12 UTC su 29 metu 14 UTC
Vėjas 6 kt iš Pietvakarių

TAF: SLCO 281650Z 2818/2918 13006KT 9999 SCT020 TX33/2819Z TN24/2910Z TEMPO 2819/2823 7000 TSRA FEW027CB BECMG 2900/2902 00000KT BECMG 2912/2914 23006KT

Orai ataskaitas ir orų prognozės (METAR, TAF).

turimą stotys yra geltonos ir raudonos taškus žemėlapyje.

Perkelti pele per norėdami pamatyti stoties vardą.

Tada spustelėkite, norėdami matyti oro stebėjimo ir prognozės.

Norėdami pakeisti žemėlapį: spustelėkite ant žalios mygtukų su juodo kryžiaus žemyn,; žalią mygtuką su brūkšneliu, jei norite nutolinti; arba žalių rodyklių gretimoms žemėlapius.


METAR-TAF: